Time;durP1;ratioP1;P1;durP2;ratioP2;P2;SDS_P1;SDS_P2;PMS_P1;PMS_P2;Temp;Humidity;BMP_temperature;BMP_pressure;BME280_temperature;BME280_humidity;BME280_pressure;Samples;Min_cycle;Max_cycle;Signal;HPM_P1;HPM_P2
2022/09/06 00:00:11;;;;;;;;;;;;;;;;;;5029453;28;46460;-75
2022/09/06 00:02:38;;;;;;;;;;;;;;;;;;5026064;28;48022;-75
2022/09/06 00:05:04;;;;;;;;;;;;;;;;;;5023916;28;44717;-75
2022/09/06 00:07:30;;;;;;;;;;;;;;;;;;5013068;28;47029;-75
2022/09/06 00:09:56;;;;;;;;;;;;;;;;;;5020624;28;45946;-75
2022/09/06 00:12:23;;;;;;;;;;;;;;;;;;5014742;28;47408;-75
2022/09/06 00:14:49;;;;;;;;;;;;;;;;;;5010346;28;46820;-75
2022/09/06 00:17:15;;;;;;;;;;;;;;;;;;5024507;28;44722;-75
2022/09/06 00:19:41;;;;;;;;;;;;;;;;;;5028775;28;47854;-75
2022/09/06 00:22:08;;;;;;;;;;;;;;;;;;5029056;28;47913;-75
2022/09/06 00:24:36;;;;;;;;;;;;;;;;;;5029330;28;44911;-75
2022/09/06 00:27:02;;;;;;;;;;;;;;;;;;5020255;28;46689;-75
2022/09/06 00:29:28;;;;;;;;;;;;;;;;;;5024085;28;44768;-75
2022/09/06 00:31:54;;;;;;;;;;;;;;;;;;5028929;28;47873;-75
2022/09/06 00:34:20;;;;;;;;;;;;;;;;;;5028472;28;46906;-75
2022/09/06 00:36:47;;;;;;;;;;;;;;;;;;5028648;28;44481;-75
2022/09/06 00:39:13;;;;;;;;;;;;;;;;;;5021470;28;47973;-75
2022/09/06 00:41:39;;;;;;;;;;;;;;;;;;5028868;28;48069;-75
2022/09/06 00:44:05;;;;;;;;;;;;;;;;;;5028321;28;45075;-75
2022/09/06 00:46:32;;;;;;;;;;;;;;;;;;5029226;28;47738;-75
2022/09/06 00:48:58;;;;;;;;;;;;;;;;;;5019974;28;35756;-75
2022/09/06 00:51:24;;;;;;;;;;;;;;;;;;5023443;28;47569;-75
2022/09/06 00:53:50;;;;;;;;;;;;;;;;;;5028520;28;47738;-75
2022/09/06 00:56:17;;;;;;;;;;;;;;;;;;5028076;28;44710;-75
2022/09/06 00:58:43;;;;;;;;;;;;;;;;;;5029113;28;46935;-75
2022/09/06 01:01:11;;;;;;;;;;;;;;;;;;5027011;28;47230;-75
2022/09/06 01:03:37;;;;;;;;;;;;;;;;;;5028014;28;43653;-75
2022/09/06 01:06:03;;;;;;;;;;;;;;;;;;5027993;28;48119;-75
2022/09/06 01:08:30;;;;;;;;;;;;;;;;;;5028326;28;46995;-75
2022/09/06 01:10:56;;;;;;;;;;;;;;;;;;5024045;28;46299;-75
2022/09/06 01:13:22;;;;;;;;;;;;;;;;;;5020006;28;48181;-75
2022/09/06 01:15:48;;;;;;;;;;;;;;;;;;5028568;28;44523;-75
2022/09/06 01:18:15;;;;;;;;;;;;;;;;;;5026477;28;47957;-75
2022/09/06 01:20:41;;;;;;;;;;;;;;;;;;5021383;28;48173;-75
2022/09/06 01:23:07;;;;;;;;;;;;;;;;;;5011995;28;46510;-75
2022/09/06 01:25:33;;;;;;;;;;;;;;;;;;5013092;28;46363;-75
2022/09/06 01:28:00;;;;;;;;;;;;;;;;;;5027338;28;46887;-75
2022/09/06 01:30:26;;;;;;;;;;;;;;;;;;5026606;28;43447;-75
2022/09/06 01:32:52;;;;;;;;;;;;;;;;;;5027547;28;47581;-75
2022/09/06 01:35:18;;;;;;;;;;;;;;;;;;5028116;28;44931;-75
2022/09/06 01:37:44;;;;;;;;;;;;;;;;;;5027047;28;45506;-75
2022/09/06 01:40:11;;;;;;;;;;;;;;;;;;5025398;28;46856;-76
2022/09/06 01:42:37;;;;;;;;;;;;;;;;;;5027106;28;46143;-75
2022/09/06 01:45:03;;;;;;;;;;;;;;;;;;5029386;28;46504;-76
2022/09/06 01:47:30;;;;;;;;;;;;;;;;;;5014342;28;48047;-76
2022/09/06 01:49:56;;;;;;;;;;;;;;;;;;5023367;28;43437;-76
2022/09/06 01:52:22;;;;;;;;;;;;;;;;;;5019587;28;47549;-76
2022/09/06 01:54:49;;;;;;;;;;;;;;;;;;5027337;28;45995;-76
2022/09/06 01:57:15;;;;;;;;;;;;;;;;;;5028153;28;47419;-76
2022/09/06 01:59:41;;;;;;;;;;;;;;;;;;5028825;28;48521;-76
2022/09/06 02:02:08;;;;;;;;;;;;;;;;;;5023181;28;44585;-76
2022/09/06 02:04:35;;;;;;;;;;;;;;;;;;5028302;28;45056;-76
2022/09/06 02:07:01;;;;;;;;;;;;;;;;;;5027065;28;48130;-76
2022/09/06 02:09:27;;;;;;;;;;;;;;;;;;5028327;28;45875;-76
2022/09/06 02:11:53;;;;;;;;;;;;;;;;;;5020577;28;47563;-77
2022/09/06 02:14:20;;;;;;;;;;;;;;;;;;5019661;28;48656;-77
2022/09/06 02:16:46;;;;;;;;;;;;;;;;;;5025167;28;47573;-76
2022/09/06 02:19:12;;;;;;;;;;;;;;;;;;5026992;28;48590;-77
2022/09/06 02:21:39;;;;;;;;;;;;;;;;;;5020015;28;44219;-76
2022/09/06 02:24:06;;;;;;;;;;;;;;;;;;5025685;28;47673;-76
2022/09/06 02:26:32;;;;;;;;;;;;;;;;;;5026754;28;47908;-76
2022/09/06 02:28:58;;;;;;;;;;;;;;;;;;5025784;28;45831;-76
2022/09/06 02:31:24;;;;;;;;;;;;;;;;;;5006912;28;47878;-77
2022/09/06 02:33:50;;;;;;;;;;;;;;;;;;5034334;28;48146;-75
2022/09/06 02:36:17;;;;;;;;;;;;;;;;;;5048920;28;45876;-75
2022/09/06 02:38:43;;;;;;;;;;;;;;;;;;5046921;28;48042;-75
2022/09/06 02:41:09;;;;;;;;;;;;;;;;;;5021686;28;44722;-75
2022/09/06 02:43:36;;;;;;;;;;;;;;;;;;5017866;28;46482;-74
2022/09/06 02:46:02;;;;;;;;;;;;;;;;;;5026489;28;48295;-74
2022/09/06 02:48:28;;;;;;;;;;;;;;;;;;5025788;28;44533;-76
2022/09/06 02:50:54;;;;;;;;;;;;;;;;;;5031488;28;46357;-76
2022/09/06 02:53:21;;;;;;;;;;;;;;;;;;5009224;28;48668;-76
2022/09/06 02:55:47;;;;;;;;;;;;;;;;;;5019663;28;44652;-76
2022/09/06 02:58:14;;;;;;;;;;;;;;;;;;5026975;28;47019;-75
2022/09/06 03:00:40;;;;;;;;;;;;;;;;;;5008767;28;44975;-75
2022/09/06 03:03:06;;;;;;;;;;;;;;;;;;5009981;28;47448;-76
2022/09/06 03:05:32;;;;;;;;;;;;;;;;;;5007362;28;48137;-76
2022/09/06 03:07:59;;;;;;;;;;;;;;;;;;5015156;28;44624;-75
2022/09/06 03:10:25;;;;;;;;;;;;;;;;;;5025553;28;46491;-75
2022/09/06 03:12:51;;;;;;;;;;;;;;;;;;5005692;28;48428;-76
2022/09/06 03:15:17;;;;;;;;;;;;;;;;;;5006919;28;44837;-76
2022/09/06 03:17:43;;;;;;;;;;;;;;;;;;5021669;28;46382;-76
2022/09/06 03:20:10;;;;;;;;;;;;;;;;;;5026313;28;44520;-78
2022/09/06 03:22:36;;;;;;;;;;;;;;;;;;5014058;28;46437;-76
2022/09/06 03:25:02;;;;;;;;;;;;;;;;;;5014371;28;44474;-76
2022/09/06 03:27:28;;;;;;;;;;;;;;;;;;5026794;28;44596;-76
2022/09/06 03:29:55;;;;;;;;;;;;;;;;;;5026523;28;46465;-76
2022/09/06 03:32:21;;;;;;;;;;;;;;;;;;5016637;28;46844;-76
2022/09/06 03:34:47;;;;;;;;;;;;;;;;;;5022586;28;44698;-76
2022/09/06 03:37:13;;;;;;;;;;;;;;;;;;5025917;28;46346;-77
2022/09/06 03:39:40;;;;;;;;;;;;;;;;;;5026351;28;47346;-76
2022/09/06 03:42:06;;;;;;;;;;;;;;;;;;5018739;28;46841;-76
2022/09/06 03:44:32;;;;;;;;;;;;;;;;;;5021578;28;46826;-76
2022/09/06 03:46:59;;;;;;;;;;;;;;;;;;5006615;28;46085;-76
2022/09/06 03:49:25;;;;;;;;;;;;;;;;;;5023014;28;47579;-76
2022/09/06 03:51:51;;;;;;;;;;;;;;;;;;5018794;28;45317;-76
2022/09/06 03:54:17;;;;;;;;;;;;;;;;;;5006253;28;44413;-77
2022/09/06 03:56:44;;;;;;;;;;;;;;;;;;5025744;28;45388;-77
2022/09/06 03:59:10;;;;;;;;;;;;;;;;;;5035350;28;48098;-75
2022/09/06 04:01:36;;;;;;;;;;;;;;;;;;5035775;28;45969;-76
2022/09/06 04:04:02;;;;;;;;;;;;;;;;;;5024248;28;47223;-75
2022/09/06 04:06:28;;;;;;;;;;;;;;;;;;5025675;28;45041;-75
2022/09/06 04:08:55;;;;;;;;;;;;;;;;;;5024664;28;48015;-75
2022/09/06 04:11:21;;;;;;;;;;;;;;;;;;5023332;28;47021;-75
2022/09/06 04:13:48;;;;;;;;;;;;;;;;;;5020287;28;44728;-76
2022/09/06 04:16:16;;;;;;;;;;;;;;;;;;5011804;28;44349;-76
2022/09/06 04:18:42;;;;;;;;;;;;;;;;;;5025526;28;48562;-75
2022/09/06 04:21:08;;;;;;;;;;;;;;;;;;5022951;28;45686;-75
2022/09/06 04:23:35;;;;;;;;;;;;;;;;;;5024157;28;46619;-75
2022/09/06 04:26:05;;;;;;;;;;;;;;;;;;5028345;28;45393;-75
2022/09/06 04:28:31;;;;;;;;;;;;;;;;;;5025761;28;47391;-75
2022/09/06 04:30:57;;;;;;;;;;;;;;;;;;5017209;28;48091;-76
2022/09/06 04:33:28;;;;;;;;;;;;;;;;;;5023328;28;44981;-75
2022/09/06 04:35:55;;;;;;;;;;;;;;;;;;5028578;28;47778;-75
2022/09/06 04:38:21;;;;;;;;;;;;;;;;;;5023721;28;47010;-76
2022/09/06 04:40:48;;;;;;;;;;;;;;;;;;5026924;28;44742;-75
2022/09/06 04:43:14;;;;;;;;;;;;;;;;;;5028441;28;45274;-76
2022/09/06 04:45:40;;;;;;;;;;;;;;;;;;5025431;28;44544;-75
2022/09/06 04:48:07;;;;;;;;;;;;;;;;;;5020067;28;46329;-75
2022/09/06 04:50:33;;;;;;;;;;;;;;;;;;5010736;28;48401;-76
2022/09/06 04:52:59;;;;;;;;;;;;;;;;;;5023316;28;46494;-75
2022/09/06 04:55:28;;;;;;;;;;;;;;;;;;5025754;28;46575;-74
2022/09/06 04:57:55;;;;;;;;;;;;;;;;;;5028618;28;47959;-75
2022/09/06 05:00:22;;;;;;;;;;;;;;;;;;5027636;28;44688;-74
2022/09/06 05:02:48;;;;;;;;;;;;;;;;;;5028616;28;46323;-74
2022/09/06 05:05:14;;;;;;;;;;;;;;;;;;5024706;28;48387;-73
2022/09/06 05:07:40;;;;;;;;;;;;;;;;;;5027115;28;46480;-74
2022/09/06 05:10:07;;;;;;;;;;;;;;;;;;5028458;28;46994;-74
2022/09/06 05:12:33;;;;;;;;;;;;;;;;;;5028238;28;44591;-75
2022/09/06 05:14:59;;;;;;;;;;;;;;;;;;5021818;28;46291;-75
2022/09/06 05:17:26;;;;;;;;;;;;;;;;;;5026911;28;47026;-75
2022/09/06 05:19:52;;;;;;;;;;;;;;;;;;5024184;28;44835;-74
2022/09/06 05:22:18;;;;;;;;;;;;;;;;;;5024017;28;46336;-75
2022/09/06 05:24:45;;;;;;;;;;;;;;;;;;5016420;28;47928;-74
2022/09/06 05:27:11;;;;;;;;;;;;;;;;;;5027080;28;44529;-74
2022/09/06 05:29:37;;;;;;;;;;;;;;;;;;5019929;28;47780;-75
2022/09/06 05:32:04;;;;;;;;;;;;;;;;;;5015012;28;46989;-75
2022/09/06 05:34:30;;;;;;;;;;;;;;;;;;5022035;28;46554;-74
2022/09/06 05:36:59;;;;;;;;;;;;;;;;;;4999015;28;47109;-75
2022/09/06 05:39:25;;;;;;;;;;;;;;;;;;5021603;28;45226;-75
2022/09/06 05:41:51;;;;;;;;;;;;;;;;;;5017841;28;46727;-75
2022/09/06 05:44:17;;;;;;;;;;;;;;;;;;5026849;28;45897;-74
2022/09/06 05:46:44;;;;;;;;;;;;;;;;;;5003135;28;45827;-74
2022/09/06 05:49:10;;;;;;;;;;;;;;;;;;5022472;28;46529;-74
2022/09/06 05:51:36;;;;;;;;;;;;;;;;;;5027078;28;44808;-74
2022/09/06 05:54:02;;;;;;;;;;;;;;;;;;5025975;28;46483;-74
2022/09/06 05:56:30;;;;;;;;;;;;;;;;;;5027860;28;47413;-74
2022/09/06 05:58:56;;;;;;;;;;;;;;;;;;5021145;28;44265;-75
2022/09/06 06:01:23;;;;;;;;;;;;;;;;;;5038394;28;47681;-75
2022/09/06 06:03:50;;;;;;;;;;;;;;;;;;5019031;28;47236;-74
2022/09/06 06:06:16;;;;;;;;;;;;;;;;;;5025912;28;45881;-75
2022/09/06 06:08:42;;;;;;;;;;;;;;;;;;5034478;28;45463;-75
2022/09/06 06:11:08;;;;;;;;;;;;;;;;;;5008427;28;45759;-74
2022/09/06 06:13:38;;;;;;;;;;;;;;;;;;5033660;28;46497;-74
2022/09/06 06:16:04;;;;;;;;;;;;;;;;;;5026615;28;47031;-76
2022/09/06 06:18:30;;;;;;;;;;;;;;;;;;5006992;28;45111;-76
2022/09/06 06:20:57;;;;;;;;;;;;;;;;;;5018244;28;45374;-75
2022/09/06 06:23:24;;;;;;;;;;;;;;;;;;5018512;28;46002;-75
2022/09/06 06:25:50;;;;;;;;;;;;;;;;;;5018634;28;44849;-75
2022/09/06 06:28:16;;;;;;;;;;;;;;;;;;5021362;28;46561;-76
2022/09/06 06:30:42;;;;;;;;;;;;;;;;;;5029249;28;46565;-77
2022/09/06 06:33:09;;;;;;;;;;;;;;;;;;5007247;28;44922;-77
2022/09/06 06:35:35;;;;;;;;;;;;;;;;;;5031941;28;47332;-76
2022/09/06 06:38:05;;;;;;;;;;;;;;;;;;5034960;28;44739;-76
2022/09/06 06:40:32;;;;;;;;;;;;;;;;;;5011722;28;46475;-77
2022/09/06 06:42:59;;;;;;;;;;;;;;;;;;5024232;28;46999;-77
2022/09/06 06:45:25;;;;;;;;;;;;;;;;;;5020800;28;44096;-77
2022/09/06 06:47:51;;;;;;;;;;;;;;;;;;5030906;28;46686;-77
2022/09/06 06:50:18;;;;;;;;;;;;;;;;;;5012526;28;46978;-77
2022/09/06 06:52:44;;;;;;;;;;;;;;;;;;5023052;28;45792;-76
2022/09/06 06:55:10;;;;;;;;;;;;;;;;;;5018993;28;47668;-76
2022/09/06 06:57:36;;;;;;;;;;;;;;;;;;5020428;28;44536;-76
2022/09/06 07:00:03;;;;;;;;;;;;;;;;;;5024922;28;46616;-76
2022/09/06 07:02:29;;;;;;;;;;;;;;;;;;5023215;28;46583;-77
2022/09/06 07:04:56;;;;;;;;;;;;;;;;;;5020602;28;44082;-77
2022/09/06 07:07:22;;;;;;;;;;;;;;;;;;5005803;28;47512;-77
2022/09/06 07:09:56;;;;;;;;;;;;;;;;;;5022272;28;48692;-77
2022/09/06 07:12:42;;;;;;;;;;;;;;;;;;5026056;28;19936;-77
2022/09/06 07:15:08;;;;;;;;;;;;;;;;;;5026558;28;45463;-77
2022/09/06 07:17:34;;;;;;;;;;;;;;;;;;5025855;28;44733;-77
2022/09/06 07:20:00;;;;;;;;;;;;;;;;;;5024774;28;47420;-77
2022/09/06 07:22:42;;;;;;;;;;;;;;;;;;5024719;28;47313;-77
2022/09/06 07:25:08;;;;;;;;;;;;;;;;;;5026102;28;45683;-77
2022/09/06 07:27:35;;;;;;;;;;;;;;;;;;5024832;28;46387;-77
2022/09/06 07:30:16;;;;;;;;;;;;;;;;;;5021073;28;48503;-77
2022/09/06 07:32:43;;;;;;;;;;;;;;;;;;5024739;28;44730;-77
2022/09/06 07:35:11;;;;;;;;;;;;;;;;;;5020246;28;46809;-77
2022/09/06 07:37:37;;;;;;;;;;;;;;;;;;5005736;28;48119;-78
2022/09/06 07:40:04;;;;;;;;;;;;;;;;;;5025905;28;46533;-77
2022/09/06 07:42:30;;;;;;;;;;;;;;;;;;5026946;28;47183;-77
2022/09/06 07:45:01;;;;;;;;;;;;;;;;;;5024977;28;46320;-77
2022/09/06 07:47:27;;;;;;;;;;;;;;;;;;5026591;28;45368;-77
2022/09/06 07:50:13;;;;;;;;;;;;;;;;;;5010361;28;20302;-76
2022/09/06 07:52:59;;;;;;;;;;;;;;;;;;5011825;28;20416;-77
2022/09/06 07:55:36;;;;;;;;;;;;;;;;;;5025415;28;48064;-77
2022/09/06 07:58:02;;;;;;;;;;;;;;;;;;5013113;28;46859;-77
2022/09/06 08:00:28;;;;;;;;;;;;;;;;;;5002692;28;45475;-77
2022/09/06 08:02:54;;;;;;;;;;;;;;;;;;5029589;28;47903;-77
2022/09/06 08:05:21;;;;;;;;;;;;;;;;;;5011514;28;45675;-77
2022/09/06 08:08:07;;;;;;;;;;;;;;;;;;5030032;28;19973;-77
2022/09/06 08:10:53;;;;;;;;;;;;;;;;;;5029725;28;19933;-77
2022/09/06 08:13:19;;;;;;;;;;;;;;;;;;5012723;28;45696;-77
2022/09/06 08:15:45;;;;;;;;;;;;;;;;;;5029077;28;47798;-77
2022/09/06 08:18:12;;;;;;;;;;;;;;;;;;5029133;28;48089;-77
2022/09/06 08:20:38;;;;;;;;;;;;;;;;;;5027136;28;45756;-77
2022/09/06 08:23:04;;;;;;;;;;;;;;;;;;5029160;28;47566;-77
2022/09/06 08:25:30;;;;;;;;;;;;;;;;;;5019669;28;45875;-77
2022/09/06 08:27:57;;;;;;;;;;;;;;;;;;5019424;28;46285;-76
2022/09/06 08:30:23;;;;;;;;;;;;;;;;;;5032090;28;45966;-77
2022/09/06 08:32:50;;;;;;;;;;;;;;;;;;5048876;28;45920;-77
2022/09/06 08:35:17;;;;;;;;;;;;;;;;;;5026276;28;47524;-77
2022/09/06 08:37:43;;;;;;;;;;;;;;;;;;5028906;28;48084;-77
2022/09/06 08:40:09;;;;;;;;;;;;;;;;;;5027500;28;44456;-77
2022/09/06 08:42:36;;;;;;;;;;;;;;;;;;5025860;28;46969;-77
2022/09/06 08:45:07;;;;;;;;;;;;;;;;;;5029058;28;46872;-77
2022/09/06 08:47:34;;;;;;;;;;;;;;;;;;5034137;28;46647;-77
2022/09/06 08:50:00;;;;;;;;;;;;;;;;;;5029203;28;47007;-77
2022/09/06 08:52:26;;;;;;;;;;;;;;;;;;5027537;28;44609;-77
2022/09/06 08:54:52;;;;;;;;;;;;;;;;;;5027629;28;47923;-77
2022/09/06 08:57:19;;;;;;;;;;;;;;;;;;5027224;28;48559;-77
2022/09/06 08:59:45;;;;;;;;;;;;;;;;;;5027414;28;44556;-76
2022/09/06 09:02:12;;;;;;;;;;;;;;;;;;5027572;28;46314;-77
2022/09/06 09:04:38;;;;;;;;;;;;;;;;;;5017124;28;46540;-77
2022/09/06 09:07:04;;;;;;;;;;;;;;;;;;5031358;28;45927;-77
2022/09/06 09:09:30;;;;;;;;;;;;;;;;;;5048459;28;46781;-77
2022/09/06 09:11:57;;;;;;;;;;;;;;;;;;5021011;28;44798;-77
2022/09/06 09:14:23;;;;;;;;;;;;;;;;;;5028514;28;46482;-77
2022/09/06 09:16:49;;;;;;;;;;;;;;;;;;5027986;28;47134;-77
2022/09/06 09:19:15;;;;;;;;;;;;;;;;;;5028487;28;43623;-77
2022/09/06 09:21:42;;;;;;;;;;;;;;;;;;5034494;28;47418;-76
2022/09/06 09:24:08;;;;;;;;;;;;;;;;;;5048164;28;45120;-77
2022/09/06 09:26:35;;;;;;;;;;;;;;;;;;5031490;28;44584;-76
2022/09/06 09:29:02;;;;;;;;;;;;;;;;;;5030291;28;48395;-77
2022/09/06 09:31:29;;;;;;;;;;;;;;;;;;5018726;28;43419;-77
2022/09/06 09:33:55;;;;;;;;;;;;;;;;;;5021933;28;47754;-77
2022/09/06 09:36:21;;;;;;;;;;;;;;;;;;5026116;28;48019;-77
2022/09/06 09:38:48;;;;;;;;;;;;;;;;;;5027564;28;44714;-77
2022/09/06 09:41:14;;;;;;;;;;;;;;;;;;5026542;28;47632;-77
2022/09/06 09:43:41;;;;;;;;;;;;;;;;;;5026366;28;48106;-77
2022/09/06 09:46:08;;;;;;;;;;;;;;;;;;5026645;28;44667;-77
2022/09/06 09:48:34;;;;;;;;;;;;;;;;;;5030029;28;46121;-77
2022/09/06 09:51:01;;;;;;;;;;;;;;;;;;5028927;28;43263;-77
2022/09/06 09:53:28;;;;;;;;;;;;;;;;;;5006200;28;46653;-77
2022/09/06 09:55:54;;;;;;;;;;;;;;;;;;5027135;28;46813;-77
2022/09/06 09:58:20;;;;;;;;;;;;;;;;;;5022149;28;45645;-77
2022/09/06 10:00:46;;;;;;;;;;;;;;;;;;5007117;28;46425;-77
2022/09/06 10:03:13;;;;;;;;;;;;;;;;;;5012869;28;48241;-77
2022/09/06 10:05:39;;;;;;;;;;;;;;;;;;5027104;28;46057;-77
2022/09/06 10:08:05;;;;;;;;;;;;;;;;;;5026469;28;46325;-78
2022/09/06 10:10:32;;;;;;;;;;;;;;;;;;5027981;28;47015;-77
2022/09/06 10:12:58;;;;;;;;;;;;;;;;;;5024094;28;46469;-77
2022/09/06 10:15:24;;;;;;;;;;;;;;;;;;5026028;28;47186;-77
2022/09/06 10:17:50;;;;;;;;;;;;;;;;;;5009149;28;44726;-78
2022/09/06 10:20:17;;;;;;;;;;;;;;;;;;5020189;28;46418;-77
2022/09/06 10:22:43;;;;;;;;;;;;;;;;;;5019941;28;47038;-77
2022/09/06 10:25:09;;;;;;;;;;;;;;;;;;5021691;28;45149;-77
2022/09/06 10:27:35;;;;;;;;;;;;;;;;;;5022184;28;46460;-77
2022/09/06 10:30:07;;;;;;;;;;;;;;;;;;5020872;28;45722;-77
2022/09/06 10:32:34;;;;;;;;;;;;;;;;;;5023230;28;44699;-78
2022/09/06 10:35:00;;;;;;;;;;;;;;;;;;5012170;28;46901;-77
2022/09/06 10:37:26;;;;;;;;;;;;;;;;;;5028160;28;44703;-77
2022/09/06 10:39:52;;;;;;;;;;;;;;;;;;5024172;28;43569;-77
2022/09/06 10:42:19;;;;;;;;;;;;;;;;;;5010774;28;47428;-77
2022/09/06 10:44:45;;;;;;;;;;;;;;;;;;5026638;28;46166;-77
2022/09/06 10:47:12;;;;;;;;;;;;;;;;;;5038465;28;46260;-77
2022/09/06 10:49:38;;;;;;;;;;;;;;;;;;5008741;28;46993;-78
2022/09/06 10:52:04;;;;;;;;;;;;;;;;;;5026432;28;44721;-78
2022/09/06 10:54:30;;;;;;;;;;;;;;;;;;5031169;28;47400;-79
2022/09/06 10:56:57;;;;;;;;;;;;;;;;;;5030157;28;45934;-79
2022/09/06 10:59:23;;;;;;;;;;;;;;;;;;5033299;28;47594;-79
2022/09/06 11:02:05;;;;;;;;;;;;;;;;;;5018854;28;47716;-78
2022/09/06 11:04:31;;;;;;;;;;;;;;;;;;5030294;28;46065;-78
2022/09/06 11:06:57;;;;;;;;;;;;;;;;;;5032358;28;45311;-78
2022/09/06 11:09:24;;;;;;;;;;;;;;;;;;5032161;28;47980;-78
2022/09/06 11:11:50;;;;;;;;;;;;;;;;;;5018869;28;45712;-78
2022/09/06 11:14:16;;;;;;;;;;;;;;;;;;5025555;28;46775;-78
2022/09/06 11:16:42;;;;;;;;;;;;;;;;;;5017199;28;34497;-78
2022/09/06 11:19:09;;;;;;;;;;;;;;;;;;5016626;28;47531;-78
2022/09/06 11:21:35;;;;;;;;;;;;;;;;;;5033852;28;47104;-79
2022/09/06 11:24:01;;;;;;;;;;;;;;;;;;5027597;28;43536;-78
2022/09/06 11:26:27;;;;;;;;;;;;;;;;;;5024995;28;47177;-78
2022/09/06 11:28:54;;;;;;;;;;;;;;;;;;5030368;28;48299;-78
2022/09/06 11:31:20;;;;;;;;;;;;;;;;;;5035820;28;44734;-78
2022/09/06 11:34:06;;;;;;;;;;;;;;;;;;5013873;28;19941;-78
2022/09/06 11:36:33;;;;;;;;;;;;;;;;;;5008309;28;46993;-78
2022/09/06 11:38:59;;;;;;;;;;;;;;;;;;5018512;28;46368;-78
2022/09/06 11:41:25;;;;;;;;;;;;;;;;;;5017322;28;45542;-78
2022/09/06 11:43:51;;;;;;;;;;;;;;;;;;5019446;28;44609;-78
2022/09/06 11:46:17;;;;;;;;;;;;;;;;;;5017456;28;46253;-78
2022/09/06 11:48:45;;;;;;;;;;;;;;;;;;5025387;28;46222;-78
2022/09/06 11:51:12;;;;;;;;;;;;;;;;;;5013332;28;43666;-78
2022/09/06 11:53:38;;;;;;;;;;;;;;;;;;5031783;28;46282;-77
2022/09/06 11:56:04;;;;;;;;;;;;;;;;;;5013776;28;45317;-77
2022/09/06 11:58:30;;;;;;;;;;;;;;;;;;5024441;28;46114;-78
2022/09/06 12:00:57;;;;;;;;;;;;;;;;;;5030397;28;47955;-78
2022/09/06 12:03:23;;;;;;;;;;;;;;;;;;5029109;28;46211;-78
2022/09/06 12:06:09;;;;;;;;;;;;;;;;;;5027449;28;19936;-78
2022/09/06 12:08:36;;;;;;;;;;;;;;;;;;5014130;28;45318;-78
2022/09/06 12:11:02;;;;;;;;;;;;;;;;;;5020584;28;44794;-77
2022/09/06 12:13:28;;;;;;;;;;;;;;;;;;5029661;28;46549;-78
2022/09/06 12:15:55;;;;;;;;;;;;;;;;;;5029038;28;47001;-78
2022/09/06 12:18:21;;;;;;;;;;;;;;;;;;5028894;28;43824;-78
2022/09/06 12:20:47;;;;;;;;;;;;;;;;;;5013180;28;46527;-78
2022/09/06 12:23:15;;;;;;;;;;;;;;;;;;5021595;28;44516;-78
2022/09/06 12:25:41;;;;;;;;;;;;;;;;;;5012756;28;45192;-78
2022/09/06 12:28:07;;;;;;;;;;;;;;;;;;5026348;28;48042;-77
2022/09/06 12:30:35;;;;;;;;;;;;;;;;;;5028009;28;45947;-78
2022/09/06 12:33:02;;;;;;;;;;;;;;;;;;5013644;28;47442;-77
2022/09/06 12:35:30;;;;;;;;;;;;;;;;;;5028403;28;45299;-78
2022/09/06 12:38:17;;;;;;;;;;;;;;;;;;5011950;28;19956;-78
2022/09/06 12:40:44;;;;;;;;;;;;;;;;;;5006854;28;45179;-78
2022/09/06 12:43:10;;;;;;;;;;;;;;;;;;5020958;28;47905;-77
2022/09/06 12:45:36;;;;;;;;;;;;;;;;;;5019341;28;45203;-77
2022/09/06 12:48:03;;;;;;;;;;;;;;;;;;5019052;28;48292;-78
2022/09/06 12:50:30;;;;;;;;;;;;;;;;;;5019400;28;44604;-77
2022/09/06 12:52:58;;;;;;;;;;;;;;;;;;5010683;28;48232;-78
2022/09/06 12:55:24;;;;;;;;;;;;;;;;;;5026345;28;46975;-77
2022/09/06 12:57:50;;;;;;;;;;;;;;;;;;5020221;28;44711;-77
2022/09/06 13:00:17;;;;;;;;;;;;;;;;;;5020932;28;47603;-77
2022/09/06 13:02:43;;;;;;;;;;;;;;;;;;5022184;28;46998;-77
2022/09/06 13:05:10;;;;;;;;;;;;;;;;;;5020476;28;44766;-76
2022/09/06 13:07:36;;;;;;;;;;;;;;;;;;5028013;28;46846;-77
2022/09/06 13:10:03;;;;;;;;;;;;;;;;;;5024930;28;44716;-77
2022/09/06 13:12:29;;;;;;;;;;;;;;;;;;5017630;28;46460;-77
2022/09/06 13:14:55;;;;;;;;;;;;;;;;;;5008516;28;46901;-77
2022/09/06 13:17:21;;;;;;;;;;;;;;;;;;5025512;28;44627;-78
2022/09/06 13:19:48;;;;;;;;;;;;;;;;;;5027100;28;46337;-77
2022/09/06 13:22:14;;;;;;;;;;;;;;;;;;5026904;28;48480;-77
2022/09/06 13:24:40;;;;;;;;;;;;;;;;;;5028795;28;45828;-76
2022/09/06 13:27:11;;;;;;;;;;;;;;;;;;5025456;28;47439;-77
2022/09/06 13:29:37;;;;;;;;;;;;;;;;;;5022132;28;45715;-78
2022/09/06 13:32:08;;;;;;;;;;;;;;;;;;5032097;28;46440;-78
2022/09/06 13:34:35;;;;;;;;;;;;;;;;;;5013854;28;47388;-77
2022/09/06 13:37:02;;;;;;;;;;;;;;;;;;5017151;28;44905;-77
2022/09/06 13:39:28;;;;;;;;;;;;;;;;;;5024575;28;47570;-77
2022/09/06 13:41:55;;;;;;;;;;;;;;;;;;5003173;28;47449;-77
2022/09/06 13:44:21;;;;;;;;;;;;;;;;;;5025188;28;45686;-77
2022/09/06 13:46:47;;;;;;;;;;;;;;;;;;5024161;28;47502;-76
2022/09/06 13:49:14;;;;;;;;;;;;;;;;;;5016392;28;45107;-77
2022/09/06 13:51:41;;;;;;;;;;;;;;;;;;5024277;28;46378;-77
2022/09/06 13:54:07;;;;;;;;;;;;;;;;;;5023176;28;47962;-77
2022/09/06 13:56:34;;;;;;;;;;;;;;;;;;5017213;28;46516;-77
2022/09/06 13:59:00;;;;;;;;;;;;;;;;;;5012377;28;47553;-77
2022/09/06 14:01:26;;;;;;;;;;;;;;;;;;5021175;28;47084;-77
2022/09/06 14:03:53;;;;;;;;;;;;;;;;;;5011490;28;46112;-76
2022/09/06 14:06:19;;;;;;;;;;;;;;;;;;5010309;28;45968;-77
2022/09/06 14:08:46;;;;;;;;;;;;;;;;;;5025022;28;47963;-77
2022/09/06 14:11:31;;;;;;;;;;;;;;;;;;5006632;28;46699;-77
2022/09/06 14:13:58;;;;;;;;;;;;;;;;;;5009065;28;48010;-77
2022/09/06 14:16:25;;;;;;;;;;;;;;;;;;5025330;28;45759;-77
2022/09/06 14:19:00;;;;;;;;;;;;;;;;;;5103004;28;19930;-76
2022/09/06 14:21:26;;;;;;;;;;;;;;;;;;5084883;28;47357;-76
2022/09/06 14:23:52;;;;;;;;;;;;;;;;;;5080116;28;43536;-76
2022/09/06 14:26:19;;;;;;;;;;;;;;;;;;5080121;28;46285;-76
2022/09/06 14:28:45;;;;;;;;;;;;;;;;;;5081420;28;47980;-76
2022/09/06 14:31:12;;;;;;;;;;;;;;;;;;5081599;28;42010;-76
2022/09/06 14:33:38;;;;;;;;;;;;;;;;;;5076835;28;46752;-76
2022/09/06 14:36:04;;;;;;;;;;;;;;;;;;5079768;28;46788;-76
2022/09/06 14:38:30;;;;;;;;;;;;;;;;;;5075938;28;42059;-77
2022/09/06 14:40:57;;;;;;;;;;;;;;;;;;5078178;28;48085;-76
2022/09/06 14:43:23;;;;;;;;;;;;;;;;;;5078450;28;42615;-77
2022/09/06 14:45:49;;;;;;;;;;;;;;;;;;5066846;28;47303;-77
2022/09/06 14:48:15;;;;;;;;;;;;;;;;;;5082376;28;47208;-76
2022/09/06 14:50:42;;;;;;;;;;;;;;;;;;5086482;28;43701;-77
2022/09/06 14:53:08;;;;;;;;;;;;;;;;;;5081691;28;45045;-77
2022/09/06 14:55:54;;;;;;;;;;;;;;;;;;5083354;28;19933;-76
2022/09/06 14:58:20;;;;;;;;;;;;;;;;;;5078424;28;44864;-76
2022/09/06 15:00:48;;;;;;;;;;;;;;;;;;5081390;28;45433;-76
2022/09/06 15:03:15;;;;;;;;;;;;;;;;;;5068283;28;44662;-77
2022/09/06 15:05:41;;;;;;;;;;;;;;;;;;5079430;28;47421;-77
2022/09/06 15:08:07;;;;;;;;;;;;;;;;;;5080008;28;45894;-77
2022/09/06 15:10:33;;;;;;;;;;;;;;;;;;5082119;28;44796;-77
2022/09/06 15:13:00;;;;;;;;;;;;;;;;;;5080282;28;45763;-77
2022/09/06 15:15:26;;;;;;;;;;;;;;;;;;5088490;28;48000;-77
2022/09/06 15:17:53;;;;;;;;;;;;;;;;;;5093108;28;43842;-76
2022/09/06 15:20:19;;;;;;;;;;;;;;;;;;5078069;28;45652;-76
2022/09/06 15:22:45;;;;;;;;;;;;;;;;;;5080075;28;46973;-77
2022/09/06 15:25:12;;;;;;;;;;;;;;;;;;5075798;28;45407;-76
2022/09/06 15:27:38;;;;;;;;;;;;;;;;;;5081124;28;46983;-76
2022/09/06 15:30:04;;;;;;;;;;;;;;;;;;5064489;28;43702;-77
2022/09/06 15:32:30;;;;;;;;;;;;;;;;;;5063283;28;46373;-77
2022/09/06 15:34:57;;;;;;;;;;;;;;;;;;5062964;28;47005;-77
2022/09/06 15:37:27;;;;;;;;;;;;;;;;;;5064444;28;43980;-77
2022/09/06 15:39:54;;;;;;;;;;;;;;;;;;5062573;28;46313;-77
2022/09/06 15:42:20;;;;;;;;;;;;;;;;;;5063656;28;48140;-77
2022/09/06 15:44:46;;;;;;;;;;;;;;;;;;5066013;28;43685;-77
2022/09/06 15:47:13;;;;;;;;;;;;;;;;;;5065369;28;47247;-77
2022/09/06 15:49:40;;;;;;;;;;;;;;;;;;5064156;28;44459;-77
2022/09/06 15:52:08;;;;;;;;;;;;;;;;;;5063213;28;45237;-77
2022/09/06 15:57:19;;;;;;;;;;;;;;;;;;5055908;28;42619;-77
2022/09/06 15:59:45;;;;;;;;;;;;;;;;;;5064062;28;46680;-77
2022/09/06 16:02:12;;;;;;;;;;;;;;;;;;5064781;28;48014;-77
2022/09/06 16:04:38;;;;;;;;;;;;;;;;;;5062916;28;45027;-77
2022/09/06 16:07:04;;;;;;;;;;;;;;;;;;5064885;28;44608;-77
2022/09/06 16:09:30;;;;;;;;;;;;;;;;;;5061913;28;43095;-77
2022/09/06 16:11:57;;;;;;;;;;;;;;;;;;5064458;28;47418;-77
2022/09/06 16:14:23;;;;;;;;;;;;;;;;;;5068604;28;45171;-77
2022/09/06 16:16:51;;;;;;;;;;;;;;;;;;5067253;28;44851;-77
2022/09/06 16:19:19;;;;;;;;;;;;;;;;;;5064637;28;46382;-77
2022/09/06 16:21:45;;;;;;;;;;;;;;;;;;5067034;28;46979;-76
2022/09/06 16:24:11;;;;;;;;;;;;;;;;;;5065417;28;42396;-76
2022/09/06 16:26:38;;;;;;;;;;;;;;;;;;5063599;28;46092;-77
2022/09/06 16:29:04;;;;;;;;;;;;;;;;;;5063206;28;34629;-77
2022/09/06 16:31:31;;;;;;;;;;;;;;;;;;5065307;28;46351;-77
2022/09/06 16:34:01;;;;;;;;;;;;;;;;;;5063531;28;47725;-78
2022/09/06 16:36:27;;;;;;;;;;;;;;;;;;5063982;28;43845;-75
2022/09/06 16:38:56;;;;;;;;;;;;;;;;;;5063202;28;46347;-75
2022/09/06 16:41:22;;;;;;;;;;;;;;;;;;5062591;28;47078;-75
2022/09/06 16:43:49;;;;;;;;;;;;;;;;;;5063982;28;43544;-75
2022/09/06 16:46:15;;;;;;;;;;;;;;;;;;5065896;28;46341;-75